Terminal Aerodrome Forecast
Issued by NWS Charleston, WV

Current Version | Previous Version | Graphics & Text | Print | Product List | Glossary On
Versions: 1 2 3 4 5 6 7 8 9 10 11 12 13 14 15 16 17 18 19 20 21 22 23
935
FTUS41 KRLX 201934 AAA
TAFHTS
TAF AMD
KHTS 201934Z 2020/2118 23008KT P6SM SCT025 BKN035
     FM202100 23006KT P6SM BKN050
     FM210800 20003KT 5SM BR BKN100
     FM211300 VRB03KT P6SM BKN100=

USA.gov is the U.S. government's official web portal to all federal, state and local government web resources and services.